Time;durP1;ratioP1;P1;durP2;ratioP2;P2;SDS_P1;SDS_P2;PMS_P1;PMS_P2;Temp;Humidity;BMP_temperature;BMP_pressure;BME280_temperature;BME280_humidity;BME280_pressure;Samples;Min_cycle;Max_cycle;Signal;HPM_P1;HPM_P2
2021/08/04 00:01:13;;;;;;;5.90;4.47;;;18.40;99.90;;;;;;5030549;28;20221;-79
2021/08/04 00:03:39;;;;;;;5.95;3.83;;;18.50;99.90;;;;;;5032028;28;20246;-81
2021/08/04 00:06:04;;;;;;;6.38;5.18;;;18.40;99.90;;;;;;5030461;28;21233;-79
2021/08/04 00:08:30;;;;;;;6.20;4.28;;;18.40;99.90;;;;;;5030787;28;20183;-80
2021/08/04 00:10:56;;;;;;;7.35;4.93;;;18.10;99.90;;;;;;5032100;28;20174;-80
2021/08/04 00:13:21;;;;;;;6.65;4.72;;;18.30;99.90;;;;;;5031897;28;20196;-82
2021/08/04 00:15:47;;;;;;;5.75;5.25;;;18.20;99.90;;;;;;5030889;28;20561;-81
2021/08/04 00:18:13;;;;;;;10.45;4.82;;;18.10;99.90;;;;;;5031784;28;20631;-80
2021/08/04 00:20:38;;;;;;;6.82;5.15;;;17.90;99.90;;;;;;5032183;28;20183;-80
2021/08/04 00:23:05;;;;;;;7.35;5.88;;;17.80;99.90;;;;;;5032212;28;20168;-80
2021/08/04 00:25:31;;;;;;;9.00;6.03;;;17.80;99.90;;;;;;5031855;28;20188;-81
2021/08/04 00:27:57;;;;;;;6.70;6.10;;;17.60;99.90;;;;;;5031025;28;20225;-84
2021/08/04 00:30:23;;;;;;;12.48;5.65;;;17.60;99.90;;;;;;5033048;28;20175;-82
2021/08/04 00:32:51;;;;;;;13.85;6.55;;;17.50;99.90;;;;;;5035958;28;20199;-83
2021/08/04 00:35:16;;;;;;;13.35;6.38;;;17.50;99.90;;;;;;5036212;28;20183;-84
2021/08/04 00:37:42;;;;;;;18.63;6.05;;;17.60;99.90;;;;;;5036731;28;20152;-83
2021/08/04 00:40:08;;;;;;;7.22;5.75;;;17.80;99.90;;;;;;5036444;28;20176;-84
2021/08/04 00:42:34;;;;;;;8.85;6.70;;;17.90;99.90;;;;;;5037264;28;20243;-83
2021/08/04 00:45:00;;;;;;;5.70;4.90;;;17.90;99.90;;;;;;5039505;28;20202;-81
2021/08/04 00:47:25;;;;;;;5.07;4.60;;;18.20;99.90;;;;;;5038628;28;20164;-84
2021/08/04 00:49:51;;;;;;;8.68;5.43;;;18.10;99.90;;;;;;5039960;28;20616;-82
2021/08/04 00:52:17;;;;;;;5.25;4.70;;;18.10;99.90;;;;;;5044214;28;20167;-80
2021/08/04 00:54:43;;;;;;;7.40;5.70;;;18.10;99.90;;;;;;5040486;28;20219;-81
2021/08/04 00:57:08;;;;;;;8.38;5.97;;;18.30;99.90;;;;;;5041862;28;20180;-82
2021/08/04 00:59:35;;;;;;;5.45;4.88;;;18.30;99.90;;;;;;5042617;28;20194;-84
2021/08/04 01:02:09;;;;;;;6.38;5.13;;;18.10;99.90;;;;;;5038208;28;20172;-82
2021/08/04 01:04:52;;;;;;;5.75;5.25;;;18.00;99.90;;;;;;5038355;28;20175;-81
2021/08/04 01:07:22;;;;;;;9.25;5.57;;;18.20;99.90;;;;;;5043351;28;20184;-80
2021/08/04 01:09:52;;;;;;;6.30;5.80;;;18.30;99.90;;;;;;5042253;28;20172;-80
2021/08/04 01:12:24;;;;;;;11.43;5.88;;;18.40;99.90;;;;;;5042701;28;20168;-83
2021/08/04 01:14:54;;;;;;;12.32;5.68;;;18.40;99.90;;;;;;5042826;28;20663;-82
2021/08/04 01:17:20;;;;;;;6.97;6.30;;;18.20;99.90;;;;;;5042226;28;20648;-82
2021/08/04 01:20:10;;;;;;;7.35;6.70;;;18.20;99.90;;;;;;5041283;28;20176;-81
2021/08/04 01:22:51;;;;;;;7.88;6.72;;;18.10;99.90;;;;;;5045215;28;20179;-81
2021/08/04 01:25:19;;;;;;;6.85;5.97;;;18.10;99.90;;;;;;5042884;28;20178;-84
2021/08/04 01:27:52;;;;;;;12.57;7.15;;;18.00;99.90;;;;;;5045096;28;20194;-85
2021/08/04 01:30:20;;;;;;;11.25;7.97;;;18.00;99.90;;;;;;5043843;28;20183;-83
2021/08/04 01:32:47;;;;;;;8.15;7.38;;;18.00;99.90;;;;;;5046514;28;20186;-82
2021/08/04 01:35:14;;;;;;;11.98;8.85;;;18.00;99.90;;;;;;5043773;28;20183;-82
2021/08/04 01:37:41;;;;;;;7.25;6.68;;;18.20;99.90;;;;;;5047016;28;20178;-83
2021/08/04 01:40:08;;;;;;;9.10;8.27;;;18.30;99.90;;;;;;5041367;28;20524;-82
2021/08/04 01:42:36;;;;;;;7.47;6.78;;;18.40;99.90;;;;;;5034983;28;20160;-82
2021/08/04 01:45:04;;;;;;;10.25;7.32;;;18.40;99.90;;;;;;5035678;28;20179;-85
2021/08/04 01:47:31;;;;;;;18.58;7.45;;;18.60;99.90;;;;;;5036833;28;20160;-83
2021/08/04 01:49:58;;;;;;;9.25;7.03;;;18.60;99.90;;;;;;5035107;28;20684;-84
2021/08/04 01:52:24;;;;;;;8.38;7.13;;;18.50;99.90;;;;;;5034433;28;20160;-84
2021/08/04 01:54:51;;;;;;;11.68;7.78;;;18.20;99.90;;;;;;5034384;28;20281;-80
2021/08/04 01:57:17;;;;;;;9.25;8.32;;;18.10;99.90;;;;;;5034027;28;20204;-85
2021/08/04 01:59:44;;;;;;;9.23;8.30;;;18.10;99.90;;;;;;5036522;28;20198;-84
2021/08/04 02:02:20;;;;;;;10.13;8.27;;;18.20;99.90;;;;;;5035593;28;20165;-84
2021/08/04 02:04:46;;;;;;;12.55;9.43;;;18.30;99.90;;;;;;5035306;28;20163;-81
2021/08/04 02:07:47;;;;;;;10.02;9.15;;;18.30;99.90;;;;;;5034731;28;20214;-82
2021/08/04 02:10:19;;;;;;;10.10;9.07;;;18.30;99.90;;;;;;5031554;28;20691;-83
2021/08/04 02:12:51;;;;;;;10.13;8.05;;;18.20;99.90;;;;;;5035885;28;20643;-79
2021/08/04 02:15:20;;;;;;;6.57;5.97;;;17.90;99.90;;;;;;5035117;28;20229;-81
2021/08/04 02:17:56;;;;;;;8.07;7.25;;;17.70;99.90;;;;;;5033440;28;20182;-79
2021/08/04 02:20:35;;;;;;;8.90;7.10;;;17.60;99.90;;;;;;5035560;28;20618;-79
2021/08/04 02:23:11;;;;;;;7.88;7.18;;;17.80;99.90;;;;;;5037982;28;20190;-77
2021/08/04 02:25:55;;;;;;;8.10;7.30;;;17.90;99.90;;;;;;5057809;28;20172;-81
2021/08/04 02:28:24;;;;;;;8.27;6.82;;;17.90;99.90;;;;;;5057440;28;20183;-79
2021/08/04 02:30:52;;;;;;;11.18;6.95;;;17.60;99.90;;;;;;5047372;28;20187;-79
2021/08/04 02:33:19;;;;;;;8.02;6.90;;;17.60;99.90;;;;;;5032977;28;20206;-79
2021/08/04 02:35:45;;;;;;;10.35;7.15;;;17.50;99.90;;;;;;5042765;28;20206;-79
2021/08/04 02:38:12;;;;;;;9.50;6.32;;;17.30;99.90;;;;;;5033249;28;20246;-79
2021/08/04 02:40:38;;;;;;;10.10;8.25;;;17.20;99.90;;;;;;5033431;28;20263;-79
2021/08/04 02:43:04;;;;;;;14.32;7.55;;;17.30;99.90;;;;;;5033412;28;20605;-79
2021/08/04 02:45:30;;;;;;;9.48;8.55;;;17.30;99.90;;;;;;5031895;28;20221;-79
2021/08/04 02:47:56;;;;;;;12.63;9.77;;;17.10;99.90;;;;;;5031868;28;20203;-80
2021/08/04 02:50:23;;;;;;;13.25;9.90;;;17.10;99.90;;;;;;5031470;28;20654;-79
2021/08/04 02:52:49;;;;;;;11.45;9.38;;;17.00;99.90;;;;;;5031382;28;20214;-79
2021/08/04 02:55:16;;;;;;;10.63;9.57;;;17.10;99.90;;;;;;5032543;28;20203;-79
2021/08/04 02:57:42;;;;;;;12.13;8.73;;;17.20;99.90;;;;;;5032943;28;20209;-79
2021/08/04 03:00:08;;;;;;;10.23;9.25;;;17.30;99.90;;;;;;5032764;28;20176;-79
2021/08/04 03:02:34;;;;;;;10.95;9.82;;;17.20;99.90;;;;;;5031632;28;20164;-80
2021/08/04 03:05:00;;;;;;;9.98;8.93;;;17.10;99.90;;;;;;5032907;28;20505;-80
2021/08/04 03:07:25;;;;;;;12.20;9.52;;;17.30;99.90;;;;;;5032864;28;20172;-80
2021/08/04 03:09:51;;;;;;;13.95;9.07;;;17.40;99.90;;;;;;5032688;28;20524;-79
2021/08/04 03:12:17;;;;;;;10.43;9.45;;;17.50;99.90;;;;;;5031604;28;20178;-80
2021/08/04 03:14:42;;;;;;;9.80;8.23;;;17.50;99.90;;;;;;5032568;28;20206;-79
2021/08/04 03:17:08;;;;;;;10.40;8.32;;;17.50;99.90;;;;;;5032435;28;20600;-80
2021/08/04 03:19:34;;;;;;;9.07;8.18;;;17.40;99.90;;;;;;5033060;28;20243;-81
2021/08/04 03:21:59;;;;;;;13.18;8.15;;;17.10;99.90;;;;;;5032699;28;20184;-78
2021/08/04 03:24:25;;;;;;;13.15;8.98;;;17.10;99.90;;;;;;5033123;28;20182;-79
2021/08/04 03:26:50;;;;;;;9.50;8.18;;;17.30;99.90;;;;;;5032800;28;20187;-80
2021/08/04 03:29:16;;;;;;;8.93;8.02;;;17.30;99.90;;;;;;5034956;28;20523;-84
2021/08/04 03:31:45;;;;;;;14.30;8.88;;;17.50;99.90;;;;;;5032818;28;20168;-84
2021/08/04 03:34:10;;;;;;;12.10;8.65;;;17.30;99.90;;;;;;5032649;28;20210;-83
2021/08/04 03:36:36;;;;;;;17.77;9.75;;;17.10;99.90;;;;;;5033067;28;20188;-85
2021/08/04 03:39:02;;;;;;;19.98;8.93;;;17.00;99.90;;;;;;5033718;28;20222;-86
2021/08/04 03:41:27;;;;;;;9.02;8.25;;;17.00;99.90;;;;;;5034055;28;20544;-85
2021/08/04 03:43:53;;;;;;;18.23;8.43;;;17.10;99.90;;;;;;5032763;28;20275;-85
2021/08/04 03:46:19;;;;;;;12.27;8.50;;;17.10;99.90;;;;;;5034305;28;20713;-85
2021/08/04 03:48:45;;;;;;;9.88;8.88;;;17.30;99.90;;;;;;5034143;28;20182;-84
2021/08/04 03:51:10;;;;;;;8.65;7.88;;;17.00;99.90;;;;;;5032015;28;20164;-85
2021/08/04 03:53:36;;;;;;;14.68;8.93;;;16.90;99.90;;;;;;5033259;28;20199;-85
2021/08/04 03:56:02;;;;;;;9.82;8.82;;;16.80;99.90;;;;;;5033663;28;20184;-86
2021/08/04 03:58:28;;;;;;;10.93;8.88;;;17.00;99.90;;;;;;5034570;28;20226;-85
2021/08/04 04:00:54;;;;;;;13.23;9.25;;;17.20;99.90;;;;;;5032149;28;20170;-86
2021/08/04 04:03:20;;;;;;;11.20;10.10;;;17.30;99.90;;;;;;5032434;28;20259;-84
2021/08/04 04:05:45;;;;;;;12.18;9.52;;;17.30;99.90;;;;;;5031798;28;20200;-84
2021/08/04 04:08:11;;;;;;;19.60;10.10;;;17.30;99.90;;;;;;5035663;28;20171;-83
2021/08/04 04:10:37;;;;;;;13.93;9.75;;;17.00;99.90;;;;;;5037059;28;20188;-83
2021/08/04 04:13:02;;;;;;;12.25;10.77;;;16.90;99.90;;;;;;5036770;28;20532;-85
2021/08/04 04:15:28;;;;;;;17.92;11.95;;;17.00;99.90;;;;;;5036383;28;20198;-84
2021/08/04 04:17:54;;;;;;;11.20;10.30;;;17.10;99.90;;;;;;5036499;28;20164;-85
2021/08/04 04:20:19;;;;;;;11.27;10.30;;;17.20;99.90;;;;;;5035202;28;20191;-86
2021/08/04 04:22:45;;;;;;;13.85;10.90;;;17.30;99.90;;;;;;5038419;28;20581;-85
2021/08/04 04:25:12;;;;;;;14.57;11.27;;;17.30;99.90;;;;;;5038149;28;20172;-85
2021/08/04 04:27:39;;;;;;;12.77;10.60;;;17.40;99.90;;;;;;5036102;28;20172;-85
2021/08/04 04:30:06;;;;;;;12.57;10.15;;;17.50;99.90;;;;;;5036772;28;20164;-84
2021/08/04 04:32:32;;;;;;;11.90;10.82;;;17.50;99.90;;;;;;5036617;28;20172;-86
2021/08/04 04:34:57;;;;;;;16.15;10.48;;;17.50;99.90;;;;;;5036438;28;20213;-84
2021/08/04 04:37:23;;;;;;;12.50;11.18;;;17.70;99.90;;;;;;5036249;28;20226;-84
2021/08/04 04:39:49;;;;;;;13.10;9.95;;;17.60;99.90;;;;;;5034983;28;20263;-84
2021/08/04 04:42:14;;;;;;;15.85;10.65;;;17.50;99.90;;;;;;5034960;28;20523;-82
2021/08/04 04:44:40;;;;;;;11.55;10.35;;;17.50;99.90;;;;;;5036114;28;20175;-82
2021/08/04 04:47:06;;;;;;;13.07;11.18;;;17.50;99.90;;;;;;5034613;28;20195;-82
2021/08/04 04:49:31;;;;;;;13.50;11.10;;;17.50;99.90;;;;;;5035804;28;20187;-84
2021/08/04 04:52:03;;;;;;;11.18;10.27;;;17.60;99.90;;;;;;5035750;28;20176;-81
2021/08/04 04:54:28;;;;;;;11.60;10.52;;;17.50;99.90;;;;;;5035534;28;20557;-84
2021/08/04 04:56:54;;;;;;;16.50;11.18;;;17.20;99.90;;;;;;5035871;28;20194;-84
2021/08/04 04:59:20;;;;;;;15.35;10.50;;;17.30;99.90;;;;;;5035678;28;20180;-83
2021/08/04 05:01:45;;;;;;;21.83;13.07;;;17.40;99.90;;;;;;5035892;28;20218;-81
2021/08/04 05:04:11;;;;;;;12.90;11.68;;;17.60;99.90;;;;;;5034156;28;20187;-84
2021/08/04 05:06:36;;;;;;;14.55;11.82;;;17.60;99.90;;;;;;5035676;28;20219;-83
2021/08/04 05:09:02;;;;;;;12.90;11.50;;;17.70;99.90;;;;;;5038277;28;20208;-85
2021/08/04 05:11:28;;;;;;;20.05;12.85;;;17.60;99.90;;;;;;5043984;28;20148;-80
2021/08/04 05:13:54;;;;;;;28.80;11.93;;;17.70;99.90;;;;;;5059926;28;20249;-80
2021/08/04 05:16:20;;;;;;;13.52;11.23;;;17.80;99.90;;;;;;5055582;28;20192;-83
2021/08/04 05:18:45;;;;;;;21.67;12.20;;;17.80;99.90;;;;;;5053712;28;20211;-84
2021/08/04 05:21:11;;;;;;;18.90;11.10;;;17.80;99.90;;;;;;5036144;28;20182;-85
2021/08/04 05:23:37;;;;;;;18.23;12.18;;;17.80;99.90;;;;;;5035820;28;20693;-85
2021/08/04 05:26:02;;;;;;;26.25;11.80;;;17.90;99.90;;;;;;5035289;28;20188;-84
2021/08/04 05:28:28;;;;;;;13.38;12.10;;;18.10;99.90;;;;;;5035242;28;20168;-81
2021/08/04 05:30:54;;;;;;;22.45;14.00;;;18.10;99.90;;;;;;5034846;28;20168;-81
2021/08/04 05:33:20;;;;;;;26.35;13.50;;;18.20;99.90;;;;;;5033779;28;20203;-84
2021/08/04 05:35:46;;;;;;;14.85;12.02;;;18.40;99.90;;;;;;5035681;28;20275;-85
2021/08/04 05:38:11;;;;;;;12.85;11.68;;;18.60;99.90;;;;;;5033969;28;20645;-85
2021/08/04 05:40:37;;;;;;;12.25;11.15;;;18.60;99.90;;;;;;5034682;28;20578;-85
2021/08/04 05:43:03;;;;;;;14.20;11.43;;;18.60;99.90;;;;;;5034582;28;20170;-85
2021/08/04 05:45:30;;;;;;;12.85;11.25;;;18.60;99.90;;;;;;5036161;28;20218;-84
2021/08/04 05:47:56;;;;;;;13.38;11.98;;;18.70;99.90;;;;;;5035363;28;20175;-85
2021/08/04 05:50:22;;;;;;;21.52;11.13;;;18.60;99.90;;;;;;5035724;28;20272;-84
2021/08/04 05:52:50;;;;;;;31.65;13.73;;;18.60;99.90;;;;;;5035860;28;20164;-84
2021/08/04 05:55:16;;;;;;;12.35;11.13;;;18.50;99.90;;;;;;5034776;28;20174;-86
2021/08/04 05:57:43;;;;;;;14.80;11.30;;;18.60;99.90;;;;;;5038447;28;20191;-83
2021/08/04 06:00:11;;;;;;;13.57;11.27;;;18.70;99.90;;;;;;5036662;28;20171;-83
2021/08/04 06:02:36;;;;;;;12.13;10.90;;;18.70;99.90;;;;;;5034382;28;20620;-82
2021/08/04 06:05:03;;;;;;;11.93;10.77;;;18.60;99.90;;;;;;5035129;28;20253;-83
2021/08/04 06:07:29;;;;;;;11.80;10.70;;;18.60;99.90;;;;;;5036318;28;20183;-82
2021/08/04 06:09:55;;;;;;;21.70;11.68;;;18.50;99.90;;;;;;5037357;28;20186;-84
2021/08/04 06:12:21;;;;;;;19.80;11.40;;;18.40;99.90;;;;;;5037893;28;20213;-84
2021/08/04 06:14:47;;;;;;;13.75;11.60;;;18.50;99.90;;;;;;5037394;28;20667;-84
2021/08/04 06:17:12;;;;;;;12.40;10.38;;;18.60;99.90;;;;;;5037650;28;20188;-81
2021/08/04 06:19:38;;;;;;;18.77;12.52;;;18.70;99.90;;;;;;5035920;28;20178;-80
2021/08/04 06:22:04;;;;;;;14.07;11.27;;;19.00;99.90;;;;;;5036416;28;20186;-84
2021/08/04 06:24:34;;;;;;;20.60;12.55;;;19.10;99.90;;;;;;5036792;28;20172;-81
2021/08/04 06:27:03;;;;;;;19.75;11.23;;;19.30;99.90;;;;;;5032465;28;20555;-80
2021/08/04 06:29:28;;;;;;;13.65;11.95;;;19.40;99.90;;;;;;5035413;28;20179;-81
2021/08/04 06:31:54;;;;;;;13.95;12.55;;;19.60;99.90;;;;;;5034091;28;20183;-81
2021/08/04 06:34:20;;;;;;;15.15;13.23;;;19.60;99.90;;;;;;5034571;28;20253;-80
2021/08/04 06:36:46;;;;;;;18.42;12.23;;;19.80;99.90;;;;;;5039480;28;20210;-81
2021/08/04 06:39:13;;;;;;;18.23;14.00;;;20.00;99.90;;;;;;5021806;28;20239;-82
2021/08/04 06:41:39;;;;;;;17.77;13.48;;;19.90;99.90;;;;;;5025566;28;20632;-79
2021/08/04 06:44:07;;;;;;;14.40;12.80;;;20.10;99.90;;;;;;5038801;28;20191;-79
2021/08/04 06:46:34;;;;;;;20.48;12.77;;;20.20;99.90;;;;;;5039773;28;20191;-79
2021/08/04 06:49:04;;;;;;;14.27;12.75;;;20.30;99.90;;;;;;5035762;28;20171;-80
2021/08/04 06:51:30;;;;;;;14.80;12.13;;;20.30;99.90;;;;;;5033614;28;20213;-80
2021/08/04 06:53:56;;;;;;;28.45;12.98;;;20.30;99.90;;;;;;5032216;28;20583;-79
2021/08/04 06:56:23;;;;;;;20.90;12.88;;;20.10;99.90;;;;;;5031446;28;20196;-78
2021/08/04 06:58:49;;;;;;;21.17;15.30;;;20.10;99.90;;;;;;5034087;28;20171;-81
2021/08/04 07:01:14;;;;;;;15.48;13.85;;;20.20;99.90;;;;;;5031730;28;20186;-84
2021/08/04 07:03:40;;;;;;;19.48;13.68;;;20.30;99.90;;;;;;5032420;28;20535;-79
2021/08/04 07:06:08;;;;;;;18.50;14.23;;;20.40;99.90;;;;;;5032949;28;20581;-79
2021/08/04 07:08:37;;;;;;;21.63;13.45;;;20.70;99.90;;;;;;5030641;28;20366;-79
2021/08/04 07:11:04;;;;;;;14.38;12.95;;;20.30;99.90;;;;;;5030888;28;20175;-79
2021/08/04 07:13:29;;;;;;;15.93;14.23;;;20.20;99.90;;;;;;5030780;28;20219;-79
2021/08/04 07:15:55;;;;;;;15.90;11.43;;;20.40;99.90;;;;;;5032169;28;20184;-78
2021/08/04 07:18:21;;;;;;;14.95;12.18;;;20.90;99.90;;;;;;5032025;28;20799;-78
2021/08/04 07:20:47;;;;;;;13.15;12.00;;;21.80;99.90;;;;;;5032384;28;20184;-77
2021/08/04 07:23:12;;;;;;;15.90;10.90;;;22.00;99.90;;;;;;5032141;28;20172;-78
2021/08/04 07:25:38;;;;;;;12.00;10.63;;;22.30;99.90;;;;;;5031043;28;20217;-79
2021/08/04 07:28:04;;;;;;;12.80;11.60;;;23.10;99.90;;;;;;5032672;28;20222;-80
2021/08/04 07:30:30;;;;;;;14.30;11.63;;;23.60;99.90;;;;;;5032134;28;20180;-81
2021/08/04 07:32:55;;;;;;;13.70;12.15;;;23.80;99.90;;;;;;5031008;28;20259;-82
2021/08/04 07:35:22;;;;;;;11.90;10.73;;;23.60;99.90;;;;;;5032036;28;20219;-80
2021/08/04 07:37:47;;;;;;;12.50;11.18;;;23.80;99.90;;;;;;5032403;28;20168;-80
2021/08/04 07:40:16;;;;;;;24.63;9.73;;;23.90;99.90;;;;;;5032445;28;20850;-79
2021/08/04 07:42:41;;;;;;;16.75;10.70;;;24.10;99.90;;;;;;5036443;28;20171;-85
2021/08/04 07:45:09;;;;;;;16.02;10.18;;;23.60;99.90;;;;;;5036207;28;20164;-79
2021/08/04 07:47:34;;;;;;;15.65;11.00;;;23.40;99.90;;;;;;5035118;28;20529;-80
2021/08/04 07:50:00;;;;;;;12.88;11.30;;;22.90;99.90;;;;;;5036055;28;20163;-78
2021/08/04 07:52:26;;;;;;;15.35;11.55;;;22.80;99.90;;;;;;5035330;28;20176;-81
2021/08/04 07:54:52;;;;;;;11.55;9.80;;;22.40;99.90;;;;;;5035928;28;20563;-89
2021/08/04 07:57:17;;;;;;;19.67;11.52;;;22.60;99.90;;;;;;5045815;28;20183;-87
2021/08/04 07:59:43;;;;;;;21.13;11.27;;;22.50;99.90;;;;;;5051176;28;20240;-88
2021/08/04 08:02:09;;;;;;;31.58;12.40;;;22.20;99.90;;;;;;5055738;28;20187;-88
2021/08/04 08:04:38;;;;;;;12.40;11.00;;;22.10;99.90;;;;;;5058909;28;20177;-87
2021/08/04 08:07:07;;;;;;;14.02;11.77;;;21.90;99.90;;;;;;5052891;28;20187;-88
2021/08/04 08:09:47;;;;;;;17.33;12.75;;;21.70;99.90;;;;;;5047439;28;20180;-86
2021/08/04 08:12:14;;;;;;;12.93;11.63;;;21.40;99.90;;;;;;5041349;28;20187;-86
2021/08/04 08:14:40;;;;;;;15.77;11.57;;;21.50;99.90;;;;;;5038546;28;20277;-86
2021/08/04 08:17:06;;;;;;;16.85;12.40;;;21.20;99.90;;;;;;5037787;28;20926;-87
2021/08/04 08:19:32;;;;;;;15.50;12.20;;;21.30;99.90;;;;;;5037500;28;20172;-87
2021/08/04 08:24:30;;;;;;;13.48;12.10;;;21.40;99.90;;;;;;5021250;28;20168;-87
2021/08/04 08:26:57;;;;;;;14.52;11.93;;;21.50;99.90;;;;;;5037120;28;20244;-87
2021/08/04 08:29:22;;;;;;;17.50;11.07;;;21.60;99.90;;;;;;5036458;28;20168;-85
2021/08/04 08:31:48;;;;;;;13.55;11.50;;;21.80;99.90;;;;;;5036495;28;20214;-86
2021/08/04 08:34:15;;;;;;;13.98;12.63;;;21.90;99.90;;;;;;5035685;28;20572;-87
2021/08/04 08:36:41;;;;;;;19.83;12.35;;;22.00;99.90;;;;;;5037166;28;20274;-86
2021/08/04 08:39:09;;;;;;;21.25;12.07;;;22.30;99.90;;;;;;5037971;28;20245;-87
2021/08/04 08:41:35;;;;;;;11.93;10.23;;;22.50;99.90;;;;;;5037604;28;20171;-87
2021/08/04 08:44:01;;;;;;;12.80;11.40;;;22.70;99.90;;;;;;5035436;28;20263;-87
2021/08/04 08:46:29;;;;;;;12.25;10.88;;;22.70;99.90;;;;;;5035820;28;20242;-85
2021/08/04 08:48:55;;;;;;;18.70;11.55;;;23.00;99.90;;;;;;5034108;28;20197;-88
2021/08/04 08:51:22;;;;;;;16.15;10.43;;;23.30;99.90;;;;;;5035326;28;20160;-87
2021/08/04 08:53:50;;;;;;;11.20;10.10;;;22.70;99.90;;;;;;5035526;28;20302;-87
2021/08/04 08:56:18;;;;;;;11.32;10.10;;;22.30;99.90;;;;;;5035547;28;20283;-87
2021/08/04 08:58:49;;;;;;;10.18;9.13;;;22.50;99.90;;;;;;5035296;28;20178;-87
2021/08/04 09:01:15;;;;;;;11.98;9.43;;;22.50;99.90;;;;;;5035792;28;20190;-87
2021/08/04 09:03:41;;;;;;;12.63;9.07;;;22.40;99.90;;;;;;5035584;28;20628;-87
2021/08/04 09:06:07;;;;;;;9.48;8.68;;;22.50;99.90;;;;;;5035474;28;20192;-87
2021/08/04 09:08:35;;;;;;;11.88;10.18;;;22.60;99.90;;;;;;5038479;28;20209;-89
2021/08/04 09:11:12;;;;;;;11.77;9.65;;;22.30;99.90;;;;;;5034174;28;20168;-83
2021/08/04 09:13:38;;;;;;;10.77;9.05;;;22.40;99.90;;;;;;5033366;28;20211;-83
2021/08/04 09:16:06;;;;;;;10.23;9.25;;;22.30;99.90;;;;;;5032641;28;20191;-85
2021/08/04 09:18:44;;;;;;;10.23;9.10;;;22.10;99.90;;;;;;5032432;28;20190;-87
2021/08/04 09:21:11;;;;;;;9.65;8.70;;;22.40;99.90;;;;;;5032882;28;20532;-85
2021/08/04 09:23:49;;;;;;;9.52;7.43;;;22.60;99.90;;;;;;5033847;28;20175;-85
2021/08/04 09:26:17;;;;;;;9.90;5.65;;;22.80;99.90;;;;;;5033325;28;20592;-85
2021/08/04 09:29:11;;;;;;;4.43;3.92;;;22.90;99.90;;;;;;5033345;28;20183;-85
2021/08/04 09:31:40;;;;;;;6.78;3.65;;;23.40;99.90;;;;;;5030523;28;20188;-86
2021/08/04 09:34:34;;;;;;;8.55;4.47;;;23.70;99.90;;;;;;5033823;28;20993;-86
2021/08/04 09:37:19;;;;;;;7.25;4.20;;;23.70;99.90;;;;;;5033407;28;20188;-86
2021/08/04 09:40:06;;;;;;;1.52;1.42;;;23.90;99.90;;;;;;5033839;28;20184;-83
2021/08/04 09:42:57;;;;;;;2.53;2.08;;;23.60;99.90;;;;;;5033545;28;20164;-83
2021/08/04 09:45:47;;;;;;;3.05;2.70;;;23.50;99.90;;;;;;5033488;28;20766;-83
2021/08/04 09:48:16;;;;;;;3.17;2.30;;;23.70;99.90;;;;;;5033729;28;20262;-84
2021/08/04 09:51:00;;;;;;;7.53;2.95;;;24.10;99.90;;;;;;5035658;28;20192;-86
2021/08/04 09:53:36;;;;;;;3.70;2.40;;;24.00;99.90;;;;;;5035262;28;20200;-90
2021/08/04 09:56:17;;;;;;;2.40;2.20;;;24.00;99.90;;;;;;5035790;28;20191;-84
2021/08/04 09:58:45;;;;;;;3.13;2.70;;;24.20;99.90;;;;;;5035214;28;20187;-90
2021/08/04 10:01:14;;;;;;;2.47;2.28;;;23.90;99.90;;;;;;5036951;28;20652;-91
2021/08/04 10:04:05;;;;;;;2.88;2.30;;;23.80;99.90;;;;;;5036101;28;20691;-89
2021/08/04 10:06:33;;;;;;;6.90;2.85;;;24.20;99.90;;;;;;5038047;28;20260;-91
2021/08/04 10:09:00;;;;;;;5.57;3.10;;;24.00;99.90;;;;;;5036498;28;20176;-92
2021/08/04 10:11:27;;;;;;;6.18;3.17;;;24.10;99.90;;;;;;5035132;28;20171;-89
2021/08/04 10:13:57;;;;;;;2.42;2.22;;;24.10;99.90;;;;;;5036792;28;20255;-92
2021/08/04 10:16:28;;;;;;;2.83;2.63;;;24.30;99.90;;;;;;5036219;28;20195;-92
2021/08/04 10:18:54;;;;;;;3.40;3.03;;;24.50;99.90;;;;;;5035804;28;20203;-91
2021/08/04 10:21:21;;;;;;;8.50;3.20;;;24.40;99.90;;;;;;5035023;28;20184;-91
2021/08/04 10:23:49;;;;;;;3.50;2.97;;;24.50;99.90;;;;;;5036367;28;20172;-91
2021/08/04 10:26:16;;;;;;;3.70;3.20;;;24.80;99.90;;;;;;5032639;28;20196;-89
2021/08/04 10:28:52;;;;;;;3.08;2.50;;;24.70;99.90;;;;;;5035772;28;20179;-93
2021/08/04 10:31:20;;;;;;;3.33;3.00;;;24.70;99.90;;;;;;5043205;28;20554;-87
2021/08/04 10:33:46;;;;;;;3.83;3.42;;;24.40;99.90;;;;;;5034053;28;20235;-86
2021/08/04 10:36:15;;;;;;;3.95;3.55;;;24.40;99.90;;;;;;5032911;28;20204;-85
2021/08/04 10:38:48;;;;;;;7.88;2.83;;;24.10;99.90;;;;;;5032822;28;20168;-89
2021/08/04 10:41:19;;;;;;;3.40;3.10;;;23.80;99.90;;;;;;5033665;28;20179;-83
2021/08/04 10:43:49;;;;;;;6.22;2.35;;;23.90;99.90;;;;;;5033062;28;20533;-83
2021/08/04 10:46:29;;;;;;;9.05;3.28;;;24.10;99.90;;;;;;5036220;28;20214;-83
2021/08/04 10:48:56;;;;;;;4.93;3.10;;;24.20;99.90;;;;;;5045274;28;20166;-83
2021/08/04 10:51:22;;;;;;;3.47;2.97;;;23.50;99.90;;;;;;5054410;28;20533;-84
2021/08/04 10:54:00;;;;;;;3.45;2.80;;;23.00;99.90;;;;;;5054788;28;20239;-84
2021/08/04 10:56:32;;;;;;;3.05;2.63;;;23.20;99.90;;;;;;5042661;28;20625;-84
2021/08/04 10:59:10;;;;;;;4.15;2.92;;;23.30;99.90;;;;;;5033329;28;20172;-84
2021/08/04 11:01:39;;;;;;;2.60;2.40;;;23.20;99.90;;;;;;5034591;28;20313;-89
2021/08/04 11:04:06;;;;;;;2.60;1.80;;;23.00;99.90;;;;;;5036916;28;20226;-93
2021/08/04 11:06:33;;;;;;;2.78;1.75;;;23.10;99.90;;;;;;5035912;28;20304;-88
2021/08/04 11:09:36;;;;;;;4.05;2.55;;;23.30;99.90;;;;;;5068067;28;20198;-90
2021/08/04 11:12:03;;;;;;;6.45;2.05;;;23.50;99.90;;;;;;5067302;28;20167;-90
2021/08/04 11:14:44;;;;;;;5.22;2.22;;;23.60;99.90;;;;;;5066973;28;20222;-89
2021/08/04 11:17:21;;;;;;;10.18;2.40;;;23.40;99.90;;;;;;5033717;28;20214;-80
2021/08/04 11:20:09;;;;;;;5.13;2.17;;;23.40;99.90;;;;;;5032351;28;20229;-80
2021/08/04 11:22:35;;;;;;;1.90;1.80;;;23.30;99.90;;;;;;5032225;28;20218;-80
2021/08/04 11:25:22;;;;;;;8.57;2.40;;;23.50;99.90;;;;;;5032749;28;20187;-79
2021/08/04 11:27:47;;;;;;;2.70;2.50;;;23.80;99.90;;;;;;5030805;28;20632;-80
2021/08/04 11:30:34;;;;;;;3.10;2.75;;;23.70;99.90;;;;;;5032438;28;20170;-81
2021/08/04 11:33:18;;;;;;;4.00;2.70;;;23.60;99.90;;;;;;5064248;28;20589;-81
2021/08/04 11:35:44;;;;;;;4.68;2.03;;;23.50;99.90;;;;;;5032290;28;20188;-81
2021/08/04 11:38:10;;;;;;;17.02;3.38;;;23.50;99.90;;;;;;5032294;28;20642;-80
2021/08/04 11:40:35;;;;;;;6.88;6.28;;;23.70;99.90;;;;;;5064292;28;20179;-79
2021/08/04 11:43:01;;;;;;;7.53;6.57;;;23.40;99.90;;;;;;5032469;28;20163;-81
2021/08/04 11:45:28;;;;;;;8.32;7.20;;;22.70;99.90;;;;;;5032597;28;20600;-81
2021/08/04 11:47:54;;;;;;;6.88;6.07;;;22.40;99.90;;;;;;5064264;28;20160;-80
2021/08/04 11:50:20;;;;;;;6.90;6.20;;;22.10;99.90;;;;;;5032805;28;20182;-81
2021/08/04 11:52:45;;;;;;;9.15;7.07;;;21.90;99.90;;;;;;5031886;28;20258;-79
2021/08/04 11:55:12;;;;;;;7.47;5.60;;;21.70;99.90;;;;;;5032367;28;20318;-82
2021/08/04 11:57:44;;;;;;;5.18;4.65;;;21.50;99.90;;;;;;5032736;28;20164;-83
2021/08/04 12:00:24;;;;;;;5.95;5.35;;;21.30;99.90;;;;;;5032621;28;20192;-81
2021/08/04 12:02:50;;;;;;;5.65;5.07;;;21.30;99.90;;;;;;5026365;28;20225;-79
2021/08/04 12:05:17;;;;;;;6.47;5.78;;;21.50;99.90;;;;;;5031978;28;20164;-84
2021/08/04 12:07:44;;;;;;;10.38;8.10;;;21.50;99.90;;;;;;5031260;28;20184;-80
2021/08/04 12:10:21;;;;;;;8.23;7.43;;;21.50;99.90;;;;;;5033076;28;20160;-77
2021/08/04 12:12:49;;;;;;;10.40;6.47;;;21.60;99.90;;;;;;5031559;28;20221;-78
2021/08/04 12:15:21;;;;;;;6.70;6.15;;;21.40;99.90;;;;;;5031261;28;20208;-78
2021/08/04 12:17:48;;;;;;;6.70;5.75;;;21.00;99.90;;;;;;5032045;28;20172;-79
2021/08/04 12:20:23;;;;;;;18.58;5.95;;;20.90;99.90;;;;;;5030178;28;20247;-78
2021/08/04 12:23:10;;;;;;;6.13;5.63;;;20.90;99.90;;;;;;5030392;28;20183;-80
2021/08/04 12:25:43;;;;;;;6.25;5.65;;;21.00;99.90;;;;;;5031681;28;20648;-79
2021/08/04 12:28:09;;;;;;;9.25;4.82;;;21.00;99.90;;;;;;5033333;28;20266;-79
2021/08/04 12:30:39;;;;;;;4.85;4.10;;;20.90;99.90;;;;;;5033334;28;20219;-80
2021/08/04 12:38:30;;;;;;;4.32;3.53;;;21.50;99.90;;;;;;5035783;28;20164;-80
2021/08/04 12:40:57;;;;;;;4.28;3.25;;;21.10;99.90;;;;;;5035840;28;20179;-78
2021/08/04 12:43:57;;;;;;;3.45;3.15;;;21.30;99.90;;;;;;5035185;28;20168;-81
2021/08/04 12:46:27;;;;;;;6.32;3.80;;;21.40;99.90;;;;;;5036517;28;20203;-78
2021/08/04 12:48:53;;;;;;;6.88;4.93;;;21.30;99.90;;;;;;5033676;28;20183;-79
2021/08/04 12:51:25;;;;;;;4.68;4.28;;;21.60;99.90;;;;;;5036447;28;20168;-79
2021/08/04 12:54:05;;;;;;;4.75;4.30;;;21.70;99.90;;;;;;5034863;28;20246;-80